createdAt,value
2023-01-07T00:04:16.255Z,98462.50
2023-01-07T00:09:19.544Z,98301.16
2023-01-07T00:14:27.601Z,98456.72
2023-01-07T00:19:31.008Z,98434.22
2023-01-07T00:24:34.493Z,98444.69
2023-01-07T00:29:38.021Z,98470.44
2023-01-07T00:34:41.325Z,98476.69
2023-01-07T00:39:44.590Z,98501.44
2023-01-07T00:44:48.027Z,98495.03
2023-01-07T00:49:51.325Z,98286.28
2023-01-07T00:54:54.578Z,98403.81
2023-01-07T00:59:57.913Z,98374.31
2023-01-07T01:05:01.176Z,98490.97
2023-01-07T01:10:18.660Z,98365.22
2023-01-07T01:15:22.089Z,98293.44
2023-01-07T01:20:25.584Z,98489.75
2023-01-07T01:25:28.937Z,98350.16
2023-01-07T01:30:32.299Z,98491.47
2023-01-07T01:35:40.570Z,98489.75
2023-01-07T01:40:44.103Z,98410.59
2023-01-07T01:45:47.514Z,98494.00
2023-01-07T01:50:52.715Z,98450.50
2023-01-07T01:56:01.927Z,98483.72
2023-01-07T02:01:05.737Z,98451.47
2023-01-07T02:06:18.359Z,98400.41
2023-01-07T02:11:47.522Z,98476.94
2023-01-07T02:17:08.765Z,98475.00
2023-01-07T02:22:35.542Z,98418.53
2023-01-07T02:28:00.609Z,98470.53
2023-01-07T02:33:09.637Z,98458.44
2023-01-07T02:38:48.314Z,98379.50
2023-01-07T02:44:26.764Z,98459.09
2023-01-07T02:49:30.060Z,98381.75
2023-01-07T02:54:33.432Z,98403.22
2023-01-07T03:00:18.958Z,98445.22
2023-01-07T03:05:34.069Z,98446.91
2023-01-07T03:10:47.387Z,98447.53
2023-01-07T03:16:13.699Z,98447.41
2023-01-07T03:21:20.977Z,98398.88
2023-01-07T03:26:30.754Z,98349.56
2023-01-07T03:31:35.651Z,98430.06
2023-01-07T03:36:54.535Z,98425.31
2023-01-07T03:42:16.668Z,98363.41
2023-01-07T03:47:20.345Z,98232.03
2023-01-07T03:52:24.832Z,98310.03
2023-01-07T03:57:28.217Z,98304.50
2023-01-07T04:02:31.627Z,98226.59
2023-01-07T04:07:35.376Z,98242.91
2023-01-07T04:12:39.030Z,98372.19
2023-01-07T04:17:48.356Z,98343.50
2023-01-07T04:23:01.697Z,98288.97
2023-01-07T04:28:05.549Z,98306.03
2023-01-07T04:33:09.081Z,98358.47
2023-01-07T04:38:12.643Z,98411.16
2023-01-07T04:43:25.959Z,98410.44
2023-01-07T04:48:30.177Z,98304.53
2023-01-07T04:53:33.834Z,98360.69
2023-01-07T04:58:47.181Z,98326.78
2023-01-07T05:03:50.584Z,98348.34
2023-01-07T05:08:54.042Z,98384.38
2023-01-07T05:14:01.149Z,98414.22
2023-01-07T05:19:05.595Z,98378.38
2023-01-07T05:24:09.614Z,98403.22
2023-01-07T05:29:13.027Z,98354.69
2023-01-07T05:34:16.554Z,98421.72
2023-01-07T05:39:19.930Z,98311.88
2023-01-07T05:44:23.707Z,98227.47
2023-01-07T05:49:26.982Z,98431.06
2023-01-07T05:54:40.696Z,98368.22
2023-01-07T05:59:53.981Z,98379.25
2023-01-07T06:04:57.329Z,98404.19
2023-01-07T06:10:02.787Z,98430.19
2023-01-07T06:15:08.403Z,98417.91
2023-01-07T06:20:12.608Z,98425.69
2023-01-07T06:25:16.043Z,98422.13
2023-01-07T06:30:19.405Z,98354.50
2023-01-07T06:35:22.835Z,98387.91
2023-01-07T06:40:26.108Z,98441.66
2023-01-07T06:45:29.685Z,98371.25
2023-01-07T06:50:33.092Z,98393.78
2023-01-07T06:55:37.610Z,98440.22
2023-01-07T07:00:41.113Z,98425.00
2023-01-07T07:05:44.560Z,98235.59
2023-01-07T07:10:47.990Z,98340.72
2023-01-07T07:15:51.840Z,98391.25
2023-01-07T07:20:55.149Z,98315.59
2023-01-07T07:25:59.140Z,98403.16
2023-01-07T07:31:02.670Z,98264.28
2023-01-07T07:36:06.389Z,98366.50
2023-01-07T07:41:09.947Z,98411.47
2023-01-07T07:46:23.563Z,98364.66
2023-01-07T07:51:26.890Z,98427.38
2023-01-07T07:56:30.542Z,98207.25
2023-01-07T08:01:37.316Z,98245.97
2023-01-07T08:06:40.872Z,98450.81
2023-01-07T08:11:44.181Z,98363.25
2023-01-07T08:16:47.578Z,98411.34
2023-01-07T08:21:52.387Z,98244.91
2023-01-07T08:27:03.900Z,98425.22
2023-01-07T08:32:07.367Z,98315.09
2023-01-07T08:37:11.698Z,98444.47
2023-01-07T08:42:15.045Z,98340.41
2023-01-07T08:47:18.324Z,98398.41
2023-01-07T08:52:22.622Z,98343.69
2023-01-07T08:57:26.394Z,98204.03
2023-01-07T09:02:29.710Z,98219.75
2023-01-07T09:07:33.463Z,98318.41
2023-01-07T09:12:37.015Z,98445.47
2023-01-07T09:17:40.372Z,98312.34
2023-01-07T09:22:44.693Z,98443.81
2023-01-07T09:27:58.054Z,98324.91
2023-01-07T09:33:01.337Z,98349.38
2023-01-07T09:38:04.809Z,98338.63
2023-01-07T09:43:16.833Z,98397.84
2023-01-07T09:48:48.538Z,98428.31
2023-01-07T09:54:02.576Z,98340.72
2023-01-07T09:59:07.268Z,98334.28
2023-01-07T10:04:35.199Z,98302.66
2023-01-07T10:09:53.369Z,98423.34
2023-01-07T10:15:20.393Z,98349.47
2023-01-07T10:20:38.548Z,98410.00
2023-01-07T10:25:48.342Z,98398.53
2023-01-07T10:30:55.047Z,98384.09
2023-01-07T10:36:41.405Z,98395.13
2023-01-07T10:42:06.909Z,98388.44
2023-01-07T10:47:18.981Z,98388.38
2023-01-07T10:52:40.860Z,98382.25
2023-01-07T10:57:54.124Z,98388.63
2023-01-07T11:02:59.799Z,98357.97
2023-01-07T11:08:05.810Z,98365.16
2023-01-07T11:13:25.287Z,98250.81
2023-01-07T11:18:46.657Z,98333.28
2023-01-07T11:23:51.736Z,98183.34
2023-01-07T11:29:24.490Z,98152.22
2023-01-07T11:34:33.001Z,98177.88
2023-01-07T11:39:37.064Z,98342.44
2023-01-07T11:44:50.336Z,98193.09
2023-01-07T11:49:53.675Z,98312.88
2023-01-07T11:54:56.985Z,98094.31
2023-01-07T12:00:14.369Z,98185.38
2023-01-07T12:05:25.612Z,98254.56
2023-01-07T12:10:36.637Z,98304.41
2023-01-07T12:15:50.537Z,98070.47
2023-01-07T12:21:26.989Z,98235.78
2023-01-07T12:26:39.607Z,98048.16
2023-01-07T12:32:11.841Z,98260.00
2023-01-07T12:37:38.482Z,98238.94
2023-01-07T12:42:45.424Z,98238.84
2023-01-07T12:47:53.346Z,98008.09
2023-01-07T12:52:59.685Z,98237.63
2023-01-07T12:58:21.666Z,98233.88
2023-01-07T13:03:45.135Z,98217.78
2023-01-07T13:08:58.313Z,98227.69
2023-01-07T13:14:01.937Z,98037.97
2023-01-07T13:19:09.238Z,98092.34
2023-01-07T13:24:54.524Z,98217.28
2023-01-07T13:30:32.666Z,98174.94
2023-01-07T13:36:15.600Z,98209.75
2023-01-07T13:41:53.510Z,98218.56
2023-01-07T13:47:10.151Z,98204.72
2023-01-07T13:52:13.590Z,98207.81
2023-01-07T13:57:32.152Z,98207.97
2023-01-07T14:02:57.326Z,98192.78
2023-01-07T14:08:04.497Z,98200.53
2023-01-07T14:13:34.497Z,98206.25
2023-01-07T14:18:56.488Z,98144.94
2023-01-07T14:24:09.066Z,98117.81
2023-01-07T14:29:46.950Z,98015.97
2023-01-07T14:35:02.083Z,98207.16
2023-01-07T14:40:27.499Z,98202.03
2023-01-07T14:45:37.181Z,98203.09
2023-01-07T14:51:05.336Z,98204.97
2023-01-07T14:56:33.215Z,98215.78
2023-01-07T15:01:59.280Z,98197.00
2023-01-07T15:07:04.819Z,98191.53
2023-01-07T15:12:37.758Z,98060.09
2023-01-07T15:17:51.177Z,98209.94
2023-01-07T15:23:16.112Z,98209.00
2023-01-07T15:28:55.706Z,98219.75
2023-01-07T15:34:15.517Z,98214.66
2023-01-07T15:39:24.133Z,98216.22
2023-01-07T15:44:41.018Z,98172.22
2023-01-07T15:49:44.583Z,98164.63
2023-01-07T15:54:48.024Z,97986.78
2023-01-07T15:59:54.316Z,98111.47
2023-01-07T16:05:03.263Z,98216.81
2023-01-07T16:10:08.042Z,98210.31
2023-01-07T16:15:33.257Z,98141.84
2023-01-07T16:20:42.408Z,98221.56
2023-01-07T16:26:10.566Z,98207.09
2023-01-07T16:31:17.847Z,98184.69
2023-01-07T16:36:30.945Z,98229.88
2023-01-07T16:41:35.278Z,98113.53
2023-01-07T16:47:06.842Z,98224.78
2023-01-07T16:52:16.682Z,98217.56
2023-01-07T16:57:44.654Z,98118.28
2023-01-07T17:03:00.508Z,98215.91
2023-01-07T17:08:16.345Z,98187.66
2023-01-07T17:13:23.639Z,98207.34
2023-01-07T17:18:29.832Z,98172.56
2023-01-07T17:23:43.643Z,98101.22
2023-01-07T17:28:55.949Z,97981.19
2023-01-07T17:39:04.810Z,98127.00
2023-01-07T17:44:13.433Z,98210.84
2023-01-07T17:49:26.848Z,98165.56
2023-01-07T17:54:29.374Z,97980.53
2023-01-07T17:59:32.343Z,98062.81
2023-01-07T18:04:34.991Z,98168.03
2023-01-07T18:09:37.485Z,98090.88
2023-01-07T18:14:49.862Z,98199.72
2023-01-07T18:19:53.395Z,98178.22
2023-01-07T18:24:55.904Z,98178.72
2023-01-07T18:29:58.414Z,98055.38
2023-01-07T18:35:00.967Z,98202.91
2023-01-07T18:40:04.438Z,98177.22
2023-01-07T18:45:08.322Z,98179.41
2023-01-07T18:50:18.772Z,98084.16
2023-01-07T18:55:30.440Z,98156.47
2023-01-07T19:00:34.659Z,98202.97
2023-01-07T19:05:40.772Z,98149.16
2023-01-07T19:10:45.626Z,98128.56
2023-01-07T19:15:48.916Z,98108.34
2023-01-07T19:20:52.240Z,98193.44
2023-01-07T19:26:03.927Z,98196.63
2023-01-07T19:31:08.874Z,98198.84
2023-01-07T19:36:15.856Z,98204.00
2023-01-07T19:41:21.456Z,98132.00
2023-01-07T19:46:26.062Z,98205.88
2023-01-07T19:51:29.361Z,98120.03
2023-01-07T19:56:33.557Z,98144.75
2023-01-07T20:01:38.314Z,98189.66
2023-01-07T20:06:42.186Z,98142.97
2023-01-07T20:11:55.539Z,98155.28
2023-01-07T20:16:59.322Z,98157.81
2023-01-07T20:22:02.650Z,98079.78
2023-01-07T20:27:05.976Z,98053.84
2023-01-07T20:32:09.529Z,98189.88
2023-01-07T20:37:13.388Z,98159.69
2023-01-07T20:42:16.666Z,98055.38
2023-01-07T20:47:29.315Z,98150.19
2023-01-07T20:52:41.233Z,97988.28
2023-01-07T20:57:56.243Z,98170.78
2023-01-07T21:02:59.844Z,98007.16
2023-01-07T21:08:03.220Z,98074.50
2023-01-07T21:13:06.766Z,98170.50
2023-01-07T21:18:10.630Z,97980.94
2023-01-07T21:23:13.898Z,98090.97
2023-01-07T21:28:17.274Z,98057.91
2023-01-07T21:33:21.959Z,98140.09
2023-01-07T21:38:25.246Z,98123.44
2023-01-07T21:43:38.925Z,98038.47
2023-01-07T21:48:52.635Z,98133.81
2023-01-07T21:53:57.684Z,98148.25
2023-01-07T21:59:01.236Z,98146.75
2023-01-07T22:04:04.626Z,97980.94
2023-01-07T22:09:14.235Z,98121.59
2023-01-07T22:14:19.838Z,98146.81
2023-01-07T22:19:23.236Z,98128.84
2023-01-07T22:24:26.879Z,97929.78
2023-01-07T22:29:32.964Z,98116.50
2023-01-07T22:34:36.472Z,98036.38
2023-01-07T22:39:44.764Z,98055.84
2023-01-07T22:45:09.423Z,98099.88
2023-01-07T22:50:15.341Z,98117.13
2023-01-07T22:55:19.389Z,98128.22
2023-01-07T23:00:48.213Z,98073.84
2023-01-07T23:05:52.166Z,98029.63
2023-01-07T23:10:59.458Z,98041.31
2023-01-07T23:16:05.272Z,98063.28
2023-01-07T23:21:08.632Z,97992.34
2023-01-07T23:26:15.791Z,97999.19
2023-01-07T23:31:19.563Z,97880.88
2023-01-07T23:36:23.011Z,98009.81
2023-01-07T23:41:27.069Z,97994.00
2023-01-07T23:46:32.239Z,98029.69
2023-01-07T23:51:35.832Z,98044.19
2023-01-07T23:56:39.149Z,98043.19
